sensor_id;sensor_type;location;lat;lon;timestamp;pressure;altitude;pressure_sealevel;temperature;humidity
19884;BME280;10104;50.732;10.174;2023-03-26T00:01:06;97007.97;;;7.36;100.00
19884;BME280;10104;50.732;10.174;2023-03-26T00:03:28;97024.56;;;7.37;100.00
19884;BME280;10104;50.732;10.174;2023-03-26T00:08:24;97000.50;;;7.40;100.00
19884;BME280;10104;50.732;10.174;2023-03-26T00:10:45;97025.63;;;7.42;100.00
19884;BME280;10104;50.732;10.174;2023-03-26T00:13:07;97014.94;;;7.44;100.00
19884;BME280;10104;50.732;10.174;2023-03-26T00:15:29;97001.34;;;7.40;100.00
19884;BME280;10104;50.732;10.174;2023-03-26T00:17:51;97011.22;;;7.38;100.00
19884;BME280;10104;50.732;10.174;2023-03-26T00:20:14;96995.50;;;7.45;100.00
19884;BME280;10104;50.732;10.174;2023-03-26T00:22:36;97004.22;;;7.45;100.00
19884;BME280;10104;50.732;10.174;2023-03-26T00:24:57;97013.34;;;7.49;100.00
19884;BME280;10104;50.732;10.174;2023-03-26T00:27:19;97010.66;;;7.43;100.00
19884;BME280;10104;50.732;10.174;2023-03-26T00:29:40;97014.16;;;7.50;100.00
19884;BME280;10104;50.732;10.174;2023-03-26T00:32:02;97005.03;;;7.46;100.00
19884;BME280;10104;50.732;10.174;2023-03-26T00:34:24;97016.78;;;7.50;100.00
19884;BME280;10104;50.732;10.174;2023-03-26T00:36:47;97007.03;;;7.44;100.00
19884;BME280;10104;50.732;10.174;2023-03-26T00:39:14;96997.50;;;7.43;100.00
19884;BME280;10104;50.732;10.174;2023-03-26T00:41:38;96994.50;;;7.46;100.00
19884;BME280;10104;50.732;10.174;2023-03-26T00:44:03;96984.56;;;7.48;100.00
19884;BME280;10104;50.732;10.174;2023-03-26T00:46:26;96999.94;;;7.44;100.00
19884;BME280;10104;50.732;10.174;2023-03-26T00:48:48;96997.50;;;7.43;100.00
19884;BME280;10104;50.732;10.174;2023-03-26T00:51:12;96993.84;;;7.44;100.00
19884;BME280;10104;50.732;10.174;2023-03-26T00:53:36;96985.94;;;7.44;100.00
19884;BME280;10104;50.732;10.174;2023-03-26T00:55:59;96993.22;;;7.42;100.00
19884;BME280;10104;50.732;10.174;2023-03-26T00:58:21;97004.56;;;7.42;100.00
19884;BME280;10104;50.732;10.174;2023-03-26T01:00:50;97005.31;;;7.36;100.00
19884;BME280;10104;50.732;10.174;2023-03-26T01:03:15;97003.69;;;7.35;100.00
19884;BME280;10104;50.732;10.174;2023-03-26T01:05:50;96982.63;;;7.35;100.00
19884;BME280;10104;50.732;10.174;2023-03-26T01:08:31;97004.97;;;7.39;100.00
19884;BME280;10104;50.732;10.174;2023-03-26T01:10:54;97007.84;;;7.44;100.00
19884;BME280;10104;50.732;10.174;2023-03-26T01:13:23;96993.84;;;7.44;100.00
19884;BME280;10104;50.732;10.174;2023-03-26T01:15:45;96989.97;;;7.40;100.00
19884;BME280;10104;50.732;10.174;2023-03-26T01:18:11;96991.22;;;7.44;100.00
19884;BME280;10104;50.732;10.174;2023-03-26T01:20:36;96998.34;;;7.50;100.00
19884;BME280;10104;50.732;10.174;2023-03-26T01:23:06;96990.63;;;7.48;100.00
19884;BME280;10104;50.732;10.174;2023-03-26T01:25:31;96998.34;;;7.50;100.00
19884;BME280;10104;50.732;10.174;2023-03-26T01:27:57;96994.31;;;7.54;100.00
19884;BME280;10104;50.732;10.174;2023-03-26T01:30:38;96990.88;;;7.53;100.00
19884;BME280;10104;50.732;10.174;2023-03-26T01:33:10;96996.53;;;7.50;100.00
19884;BME280;10104;50.732;10.174;2023-03-26T01:40:57;96996.16;;;7.53;99.79
19884;BME280;10104;50.732;10.174;2023-03-26T01:43:36;96989.28;;;7.52;99.81
19884;BME280;10104;50.732;10.174;2023-03-26T01:46:04;96982.56;;;7.50;99.56
19884;BME280;10104;50.732;10.174;2023-03-26T01:48:29;96975.06;;;7.53;99.51
19884;BME280;10104;50.732;10.174;2023-03-26T01:50:51;96987.69;;;7.58;100.00
19884;BME280;10104;50.732;10.174;2023-03-26T01:53:16;96991.69;;;7.54;99.85
19884;BME280;10104;50.732;10.174;2023-03-26T01:55:55;96978.09;;;7.50;98.77
19884;BME280;10104;50.732;10.174;2023-03-26T01:58:33;96975.28;;;7.52;98.94
19884;BME280;10104;50.732;10.174;2023-03-26T02:01:07;96982.94;;;7.47;99.62
19884;BME280;10104;50.732;10.174;2023-03-26T02:03:45;96978.25;;;7.42;99.04
19884;BME280;10104;50.732;10.174;2023-03-26T02:06:21;96976.59;;;7.41;99.55
19884;BME280;10104;50.732;10.174;2023-03-26T02:09:02;96974.59;;;7.43;100.00
19884;BME280;10104;50.732;10.174;2023-03-26T02:11:24;96980.44;;;7.39;99.62
19884;BME280;10104;50.732;10.174;2023-03-26T02:13:56;96967.69;;;7.42;99.98
19884;BME280;10104;50.732;10.174;2023-03-26T02:16:19;96978.63;;;7.39;99.54
19884;BME280;10104;50.732;10.174;2023-03-26T02:18:45;96971.72;;;7.38;100.00
19884;BME280;10104;50.732;10.174;2023-03-26T02:21:10;96960.50;;;7.29;100.00
19884;BME280;10104;50.732;10.174;2023-03-26T02:23:34;96980.75;;;7.29;100.00
19884;BME280;10104;50.732;10.174;2023-03-26T02:25:58;96965.72;;;7.23;100.00
19884;BME280;10104;50.732;10.174;2023-03-26T02:28:20;96970.22;;;7.29;100.00
19884;BME280;10104;50.732;10.174;2023-03-26T02:30:41;96977.69;;;7.25;100.00
19884;BME280;10104;50.732;10.174;2023-03-26T02:33:05;96974.66;;;7.28;100.00
19884;BME280;10104;50.732;10.174;2023-03-26T02:35:27;96967.41;;;7.30;100.00
19884;BME280;10104;50.732;10.174;2023-03-26T02:37:49;96969.28;;;7.37;100.00
19884;BME280;10104;50.732;10.174;2023-03-26T02:40:11;96967.47;;;7.37;99.76
19884;BME280;10104;50.732;10.174;2023-03-26T02:42:34;96972.31;;;7.34;100.00
19884;BME280;10104;50.732;10.174;2023-03-26T02:44:55;96975.13;;;7.32;99.84
19884;BME280;10104;50.732;10.174;2023-03-26T02:47:17;96979.56;;;7.31;99.52
19884;BME280;10104;50.732;10.174;2023-03-26T02:49:39;96987.06;;;7.35;99.96
19884;BME280;10104;50.732;10.174;2023-03-26T02:52:00;96975.38;;;7.37;99.61
19884;BME280;10104;50.732;10.174;2023-03-26T02:54:26;96969.69;;;7.34;100.00
19884;BME280;10104;50.732;10.174;2023-03-26T02:56:48;96972.38;;;7.40;99.61
19884;BME280;10104;50.732;10.174;2023-03-26T02:59:09;96978.41;;;7.41;99.10
19884;BME280;10104;50.732;10.174;2023-03-26T03:01:31;96972.59;;;7.45;99.21
19884;BME280;10104;50.732;10.174;2023-03-26T03:03:55;96971.78;;;7.45;99.52
19884;BME280;10104;50.732;10.174;2023-03-26T03:06:17;96971.34;;;7.41;99.08
19884;BME280;10104;50.732;10.174;2023-03-26T03:08:39;96961.66;;;7.48;99.13
19884;BME280;10104;50.732;10.174;2023-03-26T03:13:24;96959.66;;;7.50;97.98
19884;BME280;10104;50.732;10.174;2023-03-26T03:15:46;96959.44;;;7.45;98.54
19884;BME280;10104;50.732;10.174;2023-03-26T03:18:07;96954.94;;;7.39;98.71
19884;BME280;10104;50.732;10.174;2023-03-26T03:20:29;96951.44;;;7.32;99.33
19884;BME280;10104;50.732;10.174;2023-03-26T03:22:50;96956.13;;;7.37;99.01
19884;BME280;10104;50.732;10.174;2023-03-26T03:25:12;96955.66;;;7.26;99.73
19884;BME280;10104;50.732;10.174;2023-03-26T03:27:34;96958.94;;;7.35;99.90
19884;BME280;10104;50.732;10.174;2023-03-26T03:29:59;96956.25;;;7.28;99.57
19884;BME280;10104;50.732;10.174;2023-03-26T03:32:22;96951.31;;;7.40;98.94
19884;BME280;10104;50.732;10.174;2023-03-26T03:34:43;96950.66;;;7.38;99.28
19884;BME280;10104;50.732;10.174;2023-03-26T03:37:05;96951.09;;;7.42;99.11
19884;BME280;10104;50.732;10.174;2023-03-26T03:39:26;96952.13;;;7.47;98.98
19884;BME280;10104;50.732;10.174;2023-03-26T03:41:48;96953.59;;;7.50;98.76
19884;BME280;10104;50.732;10.174;2023-03-26T03:44:10;96955.84;;;7.53;98.40
19884;BME280;10104;50.732;10.174;2023-03-26T03:46:31;96961.41;;;7.64;97.67
19884;BME280;10104;50.732;10.174;2023-03-26T03:48:53;96957.31;;;7.62;97.24
19884;BME280;10104;50.732;10.174;2023-03-26T03:51:16;96959.31;;;7.88;96.26
19884;BME280;10104;50.732;10.174;2023-03-26T03:53:38;96954.19;;;7.80;95.38
19884;BME280;10104;50.732;10.174;2023-03-26T03:56:00;96955.41;;;7.77;96.10
19884;BME280;10104;50.732;10.174;2023-03-26T03:58:24;96964.22;;;7.63;96.58
19884;BME280;10104;50.732;10.174;2023-03-26T04:00:49;96956.97;;;7.71;96.55
19884;BME280;10104;50.732;10.174;2023-03-26T04:03:11;96959.38;;;7.66;96.99
19884;BME280;10104;50.732;10.174;2023-03-26T04:05:34;96959.94;;;7.62;97.30
19884;BME280;10104;50.732;10.174;2023-03-26T04:07:56;96954.25;;;7.58;97.36
19884;BME280;10104;50.732;10.174;2023-03-26T04:10:19;96947.59;;;7.62;98.22
19884;BME280;10104;50.732;10.174;2023-03-26T04:12:41;96942.00;;;7.79;97.00
19884;BME280;10104;50.732;10.174;2023-03-26T04:15:03;96946.81;;;7.68;97.77
19884;BME280;10104;50.732;10.174;2023-03-26T04:17:25;96939.16;;;7.73;97.51
19884;BME280;10104;50.732;10.174;2023-03-26T04:19:47;96931.44;;;7.72;97.71
19884;BME280;10104;50.732;10.174;2023-03-26T04:22:10;96931.38;;;7.65;98.21
19884;BME280;10104;50.732;10.174;2023-03-26T04:24:32;96937.78;;;7.50;99.01
19884;BME280;10104;50.732;10.174;2023-03-26T04:27:00;96936.28;;;7.41;99.82
19884;BME280;10104;50.732;10.174;2023-03-26T04:29:22;96942.63;;;7.46;100.00
19884;BME280;10104;50.732;10.174;2023-03-26T04:31:49;96936.06;;;7.36;100.00
19884;BME280;10104;50.732;10.174;2023-03-26T04:34:22;96930.41;;;7.39;100.00
19884;BME280;10104;50.732;10.174;2023-03-26T04:36:44;96928.19;;;7.42;100.00
19884;BME280;10104;50.732;10.174;2023-03-26T04:39:09;96922.84;;;7.57;100.00
19884;BME280;10104;50.732;10.174;2023-03-26T04:41:31;96912.13;;;7.58;100.00
19884;BME280;10104;50.732;10.174;2023-03-26T04:43:53;96913.22;;;7.43;100.00
19884;BME280;10104;50.732;10.174;2023-03-26T04:46:16;96900.09;;;7.49;100.00
19884;BME280;10104;50.732;10.174;2023-03-26T04:48:39;96899.28;;;7.49;100.00
19884;BME280;10104;50.732;10.174;2023-03-26T04:51:01;96896.09;;;7.60;100.00
19884;BME280;10104;50.732;10.174;2023-03-26T04:53:23;96896.34;;;7.65;100.00
19884;BME280;10104;50.732;10.174;2023-03-26T04:56:12;96885.16;;;7.56;100.00
19884;BME280;10104;50.732;10.174;2023-03-26T04:58:37;96888.38;;;7.52;99.76
19884;BME280;10104;50.732;10.174;2023-03-26T05:01:01;96893.69;;;7.58;99.31
19884;BME280;10104;50.732;10.174;2023-03-26T05:03:30;96895.78;;;7.42;99.76
19884;BME280;10104;50.732;10.174;2023-03-26T05:05:52;96895.59;;;7.43;99.17
19884;BME280;10104;50.732;10.174;2023-03-26T05:08:14;96898.81;;;7.39;99.96
19884;BME280;10104;50.732;10.174;2023-03-26T05:10:36;96896.72;;;7.27;100.00
19884;BME280;10104;50.732;10.174;2023-03-26T05:12:57;96890.81;;;7.25;100.00
19884;BME280;10104;50.732;10.174;2023-03-26T05:15:19;96890.63;;;7.27;100.00
19884;BME280;10104;50.732;10.174;2023-03-26T05:17:41;96894.91;;;7.28;100.00
19884;BME280;10104;50.732;10.174;2023-03-26T05:20:03;96885.38;;;7.61;100.00
19884;BME280;10104;50.732;10.174;2023-03-26T05:22:24;96894.47;;;7.52;99.75
19884;BME280;10104;50.732;10.174;2023-03-26T05:24:46;96889.19;;;7.52;99.94
19884;BME280;10104;50.732;10.174;2023-03-26T05:27:07;96891.41;;;7.55;100.00
19884;BME280;10104;50.732;10.174;2023-03-26T05:29:29;96886.97;;;7.56;100.00
19884;BME280;10104;50.732;10.174;2023-03-26T05:31:51;96887.16;;;7.54;99.89
19884;BME280;10104;50.732;10.174;2023-03-26T05:34:13;96881.66;;;7.49;99.58
19884;BME280;10104;50.732;10.174;2023-03-26T05:36:34;96885.97;;;7.57;99.18
19884;BME280;10104;50.732;10.174;2023-03-26T05:38:57;96874.47;;;7.64;98.14
19884;BME280;10104;50.732;10.174;2023-03-26T05:41:19;96875.00;;;7.53;98.43
19884;BME280;10104;50.732;10.174;2023-03-26T05:43:40;96877.16;;;7.43;98.96
19884;BME280;10104;50.732;10.174;2023-03-26T05:46:02;96874.13;;;7.40;99.18
19884;BME280;10104;50.732;10.174;2023-03-26T05:48:24;96870.09;;;7.44;98.65
19884;BME280;10104;50.732;10.174;2023-03-26T05:50:47;96863.59;;;7.40;99.32
19884;BME280;10104;50.732;10.174;2023-03-26T05:53:09;96860.44;;;7.57;98.98
19884;BME280;10104;50.732;10.174;2023-03-26T05:55:31;96856.28;;;7.42;98.76
19884;BME280;10104;50.732;10.174;2023-03-26T05:57:53;96849.25;;;7.49;98.68
19884;BME280;10104;50.732;10.174;2023-03-26T06:00:15;96846.38;;;7.44;98.37
19884;BME280;10104;50.732;10.174;2023-03-26T06:02:36;96843.06;;;7.35;98.63
19884;BME280;10104;50.732;10.174;2023-03-26T06:04:59;96841.13;;;7.44;98.77
19884;BME280;10104;50.732;10.174;2023-03-26T06:07:21;96845.66;;;7.56;98.26
19884;BME280;10104;50.732;10.174;2023-03-26T06:09:43;96843.28;;;7.75;97.47
19884;BME280;10104;50.732;10.174;2023-03-26T06:12:06;96837.50;;;7.92;96.77
19884;BME280;10104;50.732;10.174;2023-03-26T06:14:28;96836.94;;;8.10;95.93
19884;BME280;10104;50.732;10.174;2023-03-26T06:16:49;96827.88;;;8.26;95.06
19884;BME280;10104;50.732;10.174;2023-03-26T06:19:11;96827.44;;;8.29;94.90
19884;BME280;10104;50.732;10.174;2023-03-26T06:21:32;96818.16;;;8.46;94.26
19884;BME280;10104;50.732;10.174;2023-03-26T06:23:54;96820.22;;;8.44;94.20
19884;BME280;10104;50.732;10.174;2023-03-26T06:26:16;96817.81;;;8.69;93.80
19884;BME280;10104;50.732;10.174;2023-03-26T06:28:38;96816.16;;;8.61;92.23
19884;BME280;10104;50.732;10.174;2023-03-26T06:30:59;96812.50;;;8.49;92.78
19884;BME280;10104;50.732;10.174;2023-03-26T06:33:23;96804.38;;;8.44;93.56
19884;BME280;10104;50.732;10.174;2023-03-26T06:35:45;96805.59;;;8.48;93.52
19884;BME280;10104;50.732;10.174;2023-03-26T06:38:07;96796.88;;;8.61;93.01
19884;BME280;10104;50.732;10.174;2023-03-26T06:40:29;96790.41;;;8.76;92.29
19884;BME280;10104;50.732;10.174;2023-03-26T06:42:50;96796.28;;;8.72;92.46
19884;BME280;10104;50.732;10.174;2023-03-26T06:45:31;96787.97;;;8.68;93.29
19884;BME280;10104;50.732;10.174;2023-03-26T06:47:53;96794.06;;;8.75;92.49
19884;BME280;10104;50.732;10.174;2023-03-26T06:50:15;96788.56;;;8.70;92.71
19884;BME280;10104;50.732;10.174;2023-03-26T06:52:36;96792.81;;;8.84;92.46
19884;BME280;10104;50.732;10.174;2023-03-26T06:54:58;96789.97;;;8.99;91.60
19884;BME280;10104;50.732;10.174;2023-03-26T06:57:19;96794.81;;;9.15;91.04
19884;BME280;10104;50.732;10.174;2023-03-26T06:59:41;96784.06;;;9.10;90.67
19884;BME280;10104;50.732;10.174;2023-03-26T07:02:03;96785.66;;;9.24;89.49
19884;BME280;10104;50.732;10.174;2023-03-26T07:04:24;96796.03;;;9.19;89.10
19884;BME280;10104;50.732;10.174;2023-03-26T07:06:46;96790.53;;;9.27;90.12
19884;BME280;10104;50.732;10.174;2023-03-26T07:09:07;96792.75;;;9.37;90.02
19884;BME280;10104;50.732;10.174;2023-03-26T07:11:29;96787.44;;;9.50;89.14
19884;BME280;10104;50.732;10.174;2023-03-26T07:13:50;96783.53;;;9.59;86.69
19884;BME280;10104;50.732;10.174;2023-03-26T07:16:12;96783.78;;;9.38;88.33
19884;BME280;10104;50.732;10.174;2023-03-26T07:18:34;96771.94;;;9.60;88.77
19884;BME280;10104;50.732;10.174;2023-03-26T07:20:56;96771.63;;;9.82;87.04
19884;BME280;10104;50.732;10.174;2023-03-26T07:23:18;96760.91;;;10.08;86.93
19884;BME280;10104;50.732;10.174;2023-03-26T07:25:41;96757.41;;;10.14;86.50
19884;BME280;10104;50.732;10.174;2023-03-26T07:28:12;96765.66;;;10.31;84.93
19884;BME280;10104;50.732;10.174;2023-03-26T07:30:49;96764.91;;;10.55;84.59
19884;BME280;10104;50.732;10.174;2023-03-26T07:36:16;96752.13;;;10.95;82.78
19884;BME280;10104;50.732;10.174;2023-03-26T07:46:12;96735.22;;;11.51;80.12
19884;BME280;10104;50.732;10.174;2023-03-26T07:48:39;96736.47;;;11.66;77.80
19884;BME280;10104;50.732;10.174;2023-03-26T07:51:01;96734.16;;;11.70;77.51
19884;BME280;10104;50.732;10.174;2023-03-26T07:53:24;96732.69;;;11.92;76.71
19884;BME280;10104;50.732;10.174;2023-03-26T07:55:52;96732.47;;;11.94;73.89
19884;BME280;10104;50.732;10.174;2023-03-26T08:01:33;96721.56;;;12.13;75.12
19884;BME280;10104;50.732;10.174;2023-03-26T08:06:52;96710.56;;;12.51;72.43
19884;BME280;10104;50.732;10.174;2023-03-26T08:11:53;96709.66;;;12.69;72.84
19884;BME280;10104;50.732;10.174;2023-03-26T08:16:53;96694.97;;;12.90;71.44
19884;BME280;10104;50.732;10.174;2023-03-26T08:22:05;96693.38;;;12.77;70.94
19884;BME280;10104;50.732;10.174;2023-03-26T08:24:34;96697.53;;;12.73;72.24
19884;BME280;10104;50.732;10.174;2023-03-26T08:27:39;96685.19;;;13.02;72.23
19884;BME280;10104;50.732;10.174;2023-03-26T08:30:21;96693.59;;;13.22;71.01
19884;BME280;10104;50.732;10.174;2023-03-26T08:32:49;96692.78;;;13.10;70.70
19884;BME280;10104;50.732;10.174;2023-03-26T08:35:13;96684.00;;;13.21;70.00
19884;BME280;10104;50.732;10.174;2023-03-26T08:37:34;96678.22;;;13.24;70.38
19884;BME280;10104;50.732;10.174;2023-03-26T08:39:56;96675.31;;;13.38;69.36
19884;BME280;10104;50.732;10.174;2023-03-26T09:00:46;96666.50;;;13.37;71.27
19884;BME280;10104;50.732;10.174;2023-03-26T09:03:38;96661.56;;;13.29;71.13
19884;BME280;10104;50.732;10.174;2023-03-26T09:06:12;96650.13;;;13.28;70.43
19884;BME280;10104;50.732;10.174;2023-03-26T09:17:13;96648.19;;;13.01;74.03
19884;BME280;10104;50.732;10.174;2023-03-26T09:20:06;96634.22;;;12.93;74.34
19884;BME280;10104;50.732;10.174;2023-03-26T09:23:04;96635.63;;;12.61;75.01
19884;BME280;10104;50.732;10.174;2023-03-26T09:31:39;96629.25;;;13.20;75.54
19884;BME280;10104;50.732;10.174;2023-03-26T09:42:22;96628.56;;;13.02;76.15
19884;BME280;10104;50.732;10.174;2023-03-26T09:45:18;96623.81;;;13.04;76.77
19884;BME280;10104;50.732;10.174;2023-03-26T09:48:02;96622.53;;;13.18;77.08
19884;BME280;10104;50.732;10.174;2023-03-26T09:56:00;96615.41;;;13.35;75.00
19884;BME280;10104;50.732;10.174;2023-03-26T10:01:01;96612.81;;;13.23;71.81
19884;BME280;10104;50.732;10.174;2023-03-26T10:09:19;96613.78;;;14.07;68.92
19884;BME280;10104;50.732;10.174;2023-03-26T10:14:42;96614.88;;;13.21;71.04
19884;BME280;10104;50.732;10.174;2023-03-26T10:17:34;96602.69;;;13.65;70.44
19884;BME280;10104;50.732;10.174;2023-03-26T10:25:52;96608.19;;;13.47;70.21
19884;BME280;10104;50.732;10.174;2023-03-26T10:31:42;96600.66;;;13.56;70.26
19884;BME280;10104;50.732;10.174;2023-03-26T10:34:27;96605.75;;;13.57;69.72
19884;BME280;10104;50.732;10.174;2023-03-26T10:39:42;96600.75;;;12.81;73.16
19884;BME280;10104;50.732;10.174;2023-03-26T10:42:30;96588.72;;;12.78;73.28
19884;BME280;10104;50.732;10.174;2023-03-26T10:47:54;96583.69;;;12.77;72.86
19884;BME280;10104;50.732;10.174;2023-03-26T10:50:27;96582.97;;;12.81;71.75
19884;BME280;10104;50.732;10.174;2023-03-26T10:55:33;96588.38;;;12.86;72.07
19884;BME280;10104;50.732;10.174;2023-03-26T10:58:01;96589.88;;;12.94;71.32
19884;BME280;10104;50.732;10.174;2023-03-26T11:00:26;96587.41;;;13.04;70.98
19884;BME280;10104;50.732;10.174;2023-03-26T11:05:57;96589.38;;;12.97;71.89
19884;BME280;10104;50.732;10.174;2023-03-26T11:13:52;96587.56;;;12.86;71.37
19884;BME280;10104;50.732;10.174;2023-03-26T11:16:51;96578.78;;;12.85;72.52
19884;BME280;10104;50.732;10.174;2023-03-26T11:19:26;96580.75;;;12.78;74.62
19884;BME280;10104;50.732;10.174;2023-03-26T11:27:29;96573.69;;;12.32;74.95
19884;BME280;10104;50.732;10.174;2023-03-26T11:30:17;96579.00;;;12.21;76.16
19884;BME280;10104;50.732;10.174;2023-03-26T11:32:44;96575.75;;;12.19;76.77
19884;BME280;10104;50.732;10.174;2023-03-26T11:37:41;96572.75;;;12.27;75.68
19884;BME280;10104;50.732;10.174;2023-03-26T11:40:12;96572.84;;;12.43;74.75
19884;BME280;10104;50.732;10.174;2023-03-26T11:42:36;96570.41;;;12.53;74.59
19884;BME280;10104;50.732;10.174;2023-03-26T11:45:02;96565.34;;;12.64;72.13
19884;BME280;10104;50.732;10.174;2023-03-26T11:47:35;96568.34;;;12.44;75.01
19884;BME280;10104;50.732;10.174;2023-03-26T11:50:00;96567.53;;;12.43;73.33
19884;BME280;10104;50.732;10.174;2023-03-26T11:52:24;96563.81;;;11.74;75.08
19884;BME280;10104;50.732;10.174;2023-03-26T11:54:46;96563.19;;;12.02;76.90
19884;BME280;10104;50.732;10.174;2023-03-26T11:57:16;96552.88;;;12.41;75.29
19884;BME280;10104;50.732;10.174;2023-03-26T12:00:09;96557.41;;;12.40;76.13
19884;BME280;10104;50.732;10.174;2023-03-26T12:02:39;96562.78;;;12.69;74.32
19884;BME280;10104;50.732;10.174;2023-03-26T12:07:34;96549.84;;;12.61;73.85
19884;BME280;10104;50.732;10.174;2023-03-26T12:10:02;96545.47;;;12.54;73.79
19884;BME280;10104;50.732;10.174;2023-03-26T12:12:40;96549.88;;;12.49;75.33
19884;BME280;10104;50.732;10.174;2023-03-26T12:15:03;96541.09;;;12.60;74.57
19884;BME280;10104;50.732;10.174;2023-03-26T12:17:34;96543.47;;;12.73;71.84
19884;BME280;10104;50.732;10.174;2023-03-26T12:19:57;96541.22;;;12.53;71.07
19884;BME280;10104;50.732;10.174;2023-03-26T12:22:36;96535.22;;;12.35;71.06
19884;BME280;10104;50.732;10.174;2023-03-26T12:25:13;96538.72;;;12.12;69.86
19884;BME280;10104;50.732;10.174;2023-03-26T12:27:36;96534.44;;;12.11;70.35
19884;BME280;10104;50.732;10.174;2023-03-26T12:30:08;96527.19;;;11.83;71.47
19884;BME280;10104;50.732;10.174;2023-03-26T12:32:31;96529.25;;;12.16;71.23
19884;BME280;10104;50.732;10.174;2023-03-26T12:35:14;96526.47;;;12.11;71.86
19884;BME280;10104;50.732;10.174;2023-03-26T12:37:39;96520.59;;;11.97;73.00
19884;BME280;10104;50.732;10.174;2023-03-26T12:40:34;96516.53;;;12.41;72.29
19884;BME280;10104;50.732;10.174;2023-03-26T12:43:02;96513.94;;;12.70;70.98
19884;BME280;10104;50.732;10.174;2023-03-26T12:45:47;96510.00;;;12.72;69.19
19884;BME280;10104;50.732;10.174;2023-03-26T12:48:30;96502.59;;;13.03;70.48
19884;BME280;10104;50.732;10.174;2023-03-26T12:59:57;96473.81;;;15.47;59.85
19884;BME280;10104;50.732;10.174;2023-03-26T13:02:40;96471.81;;;16.43;59.08
19884;BME280;10104;50.732;10.174;2023-03-26T13:10:49;96450.97;;;17.18;56.48
19884;BME280;10104;50.732;10.174;2023-03-26T13:13:33;96445.38;;;17.60;55.93
19884;BME280;10104;50.732;10.174;2023-03-26T13:18:57;96432.25;;;17.13;56.45
19884;BME280;10104;50.732;10.174;2023-03-26T13:31:38;96418.56;;;16.22;59.55
19884;BME280;10104;50.732;10.174;2023-03-26T13:37:14;96404.16;;;16.23;59.56
19884;BME280;10104;50.732;10.174;2023-03-26T13:42:59;96396.13;;;15.44;57.68
19884;BME280;10104;50.732;10.174;2023-03-26T13:45:43;96391.59;;;15.76;59.42
19884;BME280;10104;50.732;10.174;2023-03-26T13:48:13;96391.34;;;15.77;59.35
19884;BME280;10104;50.732;10.174;2023-03-26T13:50:39;96393.75;;;15.42;60.53
19884;BME280;10104;50.732;10.174;2023-03-26T13:53:03;96389.06;;;14.95;62.67
19884;BME280;10104;50.732;10.174;2023-03-26T13:55:33;96390.97;;;14.68;62.79
19884;BME280;10104;50.732;10.174;2023-03-26T13:58:03;96398.22;;;14.51;64.09
19884;BME280;10104;50.732;10.174;2023-03-26T14:03:01;96395.59;;;14.12;67.06
19884;BME280;10104;50.732;10.174;2023-03-26T14:05:34;96398.63;;;13.61;67.59
19884;BME280;10104;50.732;10.174;2023-03-26T14:08:03;96399.75;;;13.15;69.72
19884;BME280;10104;50.732;10.174;2023-03-26T14:10:35;96398.56;;;13.39;70.52
19884;BME280;10104;50.732;10.174;2023-03-26T14:18:36;96387.00;;;13.67;70.26
19884;BME280;10104;50.732;10.174;2023-03-26T14:26:49;96398.78;;;12.47;74.96
19884;BME280;10104;50.732;10.174;2023-03-26T14:37:19;96388.47;;;12.23;79.48
19884;BME280;10104;50.732;10.174;2023-03-26T14:40:14;96382.84;;;12.19;79.77
19884;BME280;10104;50.732;10.174;2023-03-26T14:42:53;96375.88;;;11.90;80.85
19884;BME280;10104;50.732;10.174;2023-03-26T14:50:57;96375.28;;;12.39;80.41
19884;BME280;10104;50.732;10.174;2023-03-26T14:53:29;96370.69;;;12.63;78.77
19884;BME280;10104;50.732;10.174;2023-03-26T14:58:43;96355.25;;;13.10;76.61
19884;BME280;10104;50.732;10.174;2023-03-26T15:10:10;96348.13;;;13.27;74.05
19884;BME280;10104;50.732;10.174;2023-03-26T15:13:06;96346.34;;;13.16;70.34
19884;BME280;10104;50.732;10.174;2023-03-26T15:21:33;96340.44;;;12.97;74.57
19884;BME280;10104;50.732;10.174;2023-03-26T15:31:58;96334.91;;;12.99;74.94
19884;BME280;10104;50.732;10.174;2023-03-26T15:37:34;96335.63;;;12.94;74.96
19884;BME280;10104;50.732;10.174;2023-03-26T15:47:56;96339.53;;;12.02;77.56
19884;BME280;10104;50.732;10.174;2023-03-26T15:58:21;96336.22;;;11.71;80.14
19884;BME280;10104;50.732;10.174;2023-03-26T16:01:07;96341.91;;;11.52;80.90
19884;BME280;10104;50.732;10.174;2023-03-26T16:06:24;96350.06;;;10.92;84.06
19884;BME280;10104;50.732;10.174;2023-03-26T16:12:26;96348.16;;;10.69;85.43
19884;BME280;10104;50.732;10.174;2023-03-26T16:20:33;96353.94;;;10.78;88.52
19884;BME280;10104;50.732;10.174;2023-03-26T16:22:58;96368.22;;;10.77;90.01
19884;BME280;10104;50.732;10.174;2023-03-26T16:25:34;96370.09;;;10.58;91.53
19884;BME280;10104;50.732;10.174;2023-03-26T16:30:35;96373.56;;;10.10;94.30
19884;BME280;10104;50.732;10.174;2023-03-26T16:33:08;96361.88;;;10.00;94.90
19884;BME280;10104;50.732;10.174;2023-03-26T16:36:00;96362.41;;;9.90;95.01
19884;BME280;10104;50.732;10.174;2023-03-26T16:38:23;96358.88;;;10.14;93.28
19884;BME280;10104;50.732;10.174;2023-03-26T16:40:53;96358.75;;;9.73;94.11
19884;BME280;10104;50.732;10.174;2023-03-26T16:46:13;96363.31;;;9.66;93.95
19884;BME280;10104;50.732;10.174;2023-03-26T16:48:39;96369.00;;;9.63;96.62
19884;BME280;10104;50.732;10.174;2023-03-26T16:51:13;96372.97;;;9.54;96.87
19884;BME280;10104;50.732;10.174;2023-03-26T16:54:47;96369.06;;;9.38;97.25
19884;BME280;10104;50.732;10.174;2023-03-26T16:56:44;96374.63;;;9.30;98.38
19884;BME280;10104;50.732;10.174;2023-03-26T16:59:38;96381.06;;;9.16;98.13
19884;BME280;10104;50.732;10.174;2023-03-26T17:02:15;96386.88;;;9.00;97.67
19884;BME280;10104;50.732;10.174;2023-03-26T17:04:45;96387.84;;;9.05;97.14
19884;BME280;10104;50.732;10.174;2023-03-26T17:09:58;96384.28;;;8.93;98.73
19884;BME280;10104;50.732;10.174;2023-03-26T17:17:48;96393.78;;;9.01;99.91